sensor_id;sensor_type;location;lat;lon;timestamp;P1;durP1;ratioP1;P2;durP2;ratioP2
10677;SDS011;5387;48.722;9.110;2022-09-13T00:00:41;0.70;;;0.70;;
10677;SDS011;5387;48.722;9.110;2022-09-13T00:03:09;0.57;;;0.57;;
10677;SDS011;5387;48.722;9.110;2022-09-13T00:05:37;0.70;;;0.70;;
10677;SDS011;5387;48.722;9.110;2022-09-13T00:08:05;0.60;;;0.60;;
10677;SDS011;5387;48.722;9.110;2022-09-13T00:10:34;0.75;;;0.75;;
10677;SDS011;5387;48.722;9.110;2022-09-13T00:13:01;0.68;;;0.68;;
10677;SDS011;5387;48.722;9.110;2022-09-13T00:15:29;0.60;;;0.60;;
10677;SDS011;5387;48.722;9.110;2022-09-13T00:17:55;0.70;;;0.70;;
10677;SDS011;5387;48.722;9.110;2022-09-13T00:20:22;0.70;;;0.70;;
10677;SDS011;5387;48.722;9.110;2022-09-13T00:22:49;0.70;;;0.70;;
10677;SDS011;5387;48.722;9.110;2022-09-13T00:25:16;0.87;;;0.87;;
10677;SDS011;5387;48.722;9.110;2022-09-13T00:27:45;0.60;;;0.60;;
10677;SDS011;5387;48.722;9.110;2022-09-13T00:30:12;0.57;;;0.57;;
10677;SDS011;5387;48.722;9.110;2022-09-13T00:32:39;0.60;;;0.60;;
10677;SDS011;5387;48.722;9.110;2022-09-13T00:35:06;0.60;;;0.60;;
10677;SDS011;5387;48.722;9.110;2022-09-13T00:37:34;0.80;;;0.80;;
10677;SDS011;5387;48.722;9.110;2022-09-13T00:40:01;0.60;;;0.60;;
10677;SDS011;5387;48.722;9.110;2022-09-13T00:42:29;0.63;;;0.63;;
10677;SDS011;5387;48.722;9.110;2022-09-13T00:44:59;0.70;;;0.70;;
10677;SDS011;5387;48.722;9.110;2022-09-13T00:47:29;0.60;;;0.60;;
10677;SDS011;5387;48.722;9.110;2022-09-13T00:50:02;0.57;;;0.57;;
10677;SDS011;5387;48.722;9.110;2022-09-13T00:52:33;0.70;;;0.70;;
10677;SDS011;5387;48.722;9.110;2022-09-13T00:55:03;0.80;;;0.80;;
10677;SDS011;5387;48.722;9.110;2022-09-13T00:57:36;0.60;;;0.60;;
10677;SDS011;5387;48.722;9.110;2022-09-13T01:00:07;0.60;;;0.60;;
10677;SDS011;5387;48.722;9.110;2022-09-13T01:02:38;0.60;;;0.60;;
10677;SDS011;5387;48.722;9.110;2022-09-13T01:05:06;0.70;;;0.70;;
10677;SDS011;5387;48.722;9.110;2022-09-13T01:07:34;0.60;;;0.60;;
10677;SDS011;5387;48.722;9.110;2022-09-13T01:10:02;0.60;;;0.60;;
10677;SDS011;5387;48.722;9.110;2022-09-13T01:12:33;0.80;;;0.80;;
10677;SDS011;5387;48.722;9.110;2022-09-13T01:15:09;0.60;;;0.60;;
10677;SDS011;5387;48.722;9.110;2022-09-13T01:17:36;0.55;;;0.55;;
10677;SDS011;5387;48.722;9.110;2022-09-13T01:20:05;0.60;;;0.60;;
10677;SDS011;5387;48.722;9.110;2022-09-13T01:22:38;0.70;;;0.70;;
10677;SDS011;5387;48.722;9.110;2022-09-13T01:32:03;0.70;;;0.70;;
10677;SDS011;5387;48.722;9.110;2022-09-13T01:34:39;0.75;;;0.75;;
10677;SDS011;5387;48.722;9.110;2022-09-13T01:37:18;0.60;;;0.60;;
10677;SDS011;5387;48.722;9.110;2022-09-13T01:40:00;0.70;;;0.70;;
10677;SDS011;5387;48.722;9.110;2022-09-13T01:42:35;0.63;;;0.63;;
10677;SDS011;5387;48.722;9.110;2022-09-13T01:45:16;0.73;;;0.73;;
10677;SDS011;5387;48.722;9.110;2022-09-13T01:47:51;0.60;;;0.60;;
10677;SDS011;5387;48.722;9.110;2022-09-13T01:50:26;0.80;;;0.80;;
10677;SDS011;5387;48.722;9.110;2022-09-13T01:53:02;0.70;;;0.70;;
10677;SDS011;5387;48.722;9.110;2022-09-13T01:55:36;1.08;;;1.05;;
10677;SDS011;5387;48.722;9.110;2022-09-13T01:58:13;0.68;;;0.68;;
10677;SDS011;5387;48.722;9.110;2022-09-13T02:00:46;0.60;;;0.60;;
10677;SDS011;5387;48.722;9.110;2022-09-13T02:03:21;0.60;;;0.60;;
10677;SDS011;5387;48.722;9.110;2022-09-13T02:05:56;0.60;;;0.60;;
10677;SDS011;5387;48.722;9.110;2022-09-13T02:08:28;0.60;;;0.60;;
10677;SDS011;5387;48.722;9.110;2022-09-13T02:11:03;0.82;;;0.82;;
10677;SDS011;5387;48.722;9.110;2022-09-13T02:13:35;0.80;;;0.80;;
10677;SDS011;5387;48.722;9.110;2022-09-13T02:16:06;2.00;;;0.88;;
10677;SDS011;5387;48.722;9.110;2022-09-13T02:18:39;0.70;;;0.70;;
10677;SDS011;5387;48.722;9.110;2022-09-13T02:21:08;0.60;;;0.60;;
10677;SDS011;5387;48.722;9.110;2022-09-13T02:23:39;0.97;;;0.97;;
10677;SDS011;5387;48.722;9.110;2022-09-13T02:26:09;0.60;;;0.60;;
10677;SDS011;5387;48.722;9.110;2022-09-13T02:28:40;0.57;;;0.57;;
10677;SDS011;5387;48.722;9.110;2022-09-13T02:31:10;0.70;;;0.70;;
10677;SDS011;5387;48.722;9.110;2022-09-13T02:33:40;0.80;;;0.80;;
10677;SDS011;5387;48.722;9.110;2022-09-13T02:36:12;0.53;;;0.53;;
10677;SDS011;5387;48.722;9.110;2022-09-13T02:38:43;0.70;;;0.70;;
10677;SDS011;5387;48.722;9.110;2022-09-13T02:41:16;0.67;;;0.67;;
10677;SDS011;5387;48.722;9.110;2022-09-13T02:43:50;0.82;;;0.82;;
10677;SDS011;5387;48.722;9.110;2022-09-13T02:46:22;0.60;;;0.60;;
10677;SDS011;5387;48.722;9.110;2022-09-13T02:49:02;0.57;;;0.57;;
10677;SDS011;5387;48.722;9.110;2022-09-13T02:51:40;0.73;;;0.73;;
10677;SDS011;5387;48.722;9.110;2022-09-13T02:54:18;0.60;;;0.60;;
10677;SDS011;5387;48.722;9.110;2022-09-13T02:56:52;0.57;;;0.57;;
10677;SDS011;5387;48.722;9.110;2022-09-13T02:59:23;0.65;;;0.65;;
10677;SDS011;5387;48.722;9.110;2022-09-13T03:01:51;0.90;;;0.90;;
10677;SDS011;5387;48.722;9.110;2022-09-13T03:04:25;0.70;;;0.70;;
10677;SDS011;5387;48.722;9.110;2022-09-13T03:06:52;0.70;;;0.70;;
10677;SDS011;5387;48.722;9.110;2022-09-13T03:09:19;0.60;;;0.60;;
10677;SDS011;5387;48.722;9.110;2022-09-13T03:11:54;0.50;;;0.50;;
10677;SDS011;5387;48.722;9.110;2022-09-13T03:14:35;0.80;;;0.80;;
10677;SDS011;5387;48.722;9.110;2022-09-13T03:17:12;0.80;;;0.80;;
10677;SDS011;5387;48.722;9.110;2022-09-13T03:19:55;0.80;;;0.80;;
10677;SDS011;5387;48.722;9.110;2022-09-13T03:22:44;0.60;;;0.60;;
10677;SDS011;5387;48.722;9.110;2022-09-13T03:25:41;0.60;;;0.60;;
10677;SDS011;5387;48.722;9.110;2022-09-13T03:28:23;0.65;;;0.65;;
10677;SDS011;5387;48.722;9.110;2022-09-13T03:31:00;0.70;;;0.70;;
10677;SDS011;5387;48.722;9.110;2022-09-13T03:33:33;0.60;;;0.60;;
10677;SDS011;5387;48.722;9.110;2022-09-13T03:36:10;0.82;;;0.82;;
10677;SDS011;5387;48.722;9.110;2022-09-13T03:38:41;0.60;;;0.60;;
10677;SDS011;5387;48.722;9.110;2022-09-13T03:41:12;2.08;;;0.70;;
10677;SDS011;5387;48.722;9.110;2022-09-13T03:43:44;0.60;;;0.60;;
10677;SDS011;5387;48.722;9.110;2022-09-13T03:46:16;0.65;;;0.65;;
10677;SDS011;5387;48.722;9.110;2022-09-13T03:48:47;0.90;;;0.90;;
10677;SDS011;5387;48.722;9.110;2022-09-13T03:51:16;0.60;;;0.60;;
10677;SDS011;5387;48.722;9.110;2022-09-13T03:53:45;0.70;;;0.70;;
10677;SDS011;5387;48.722;9.110;2022-09-13T03:56:18;0.63;;;0.63;;
10677;SDS011;5387;48.722;9.110;2022-09-13T03:58:45;0.60;;;0.60;;
10677;SDS011;5387;48.722;9.110;2022-09-13T04:01:12;0.57;;;0.57;;
10677;SDS011;5387;48.722;9.110;2022-09-13T04:03:40;0.70;;;0.70;;
10677;SDS011;5387;48.722;9.110;2022-09-13T04:06:07;0.50;;;0.50;;
10677;SDS011;5387;48.722;9.110;2022-09-13T04:08:35;0.77;;;0.77;;
10677;SDS011;5387;48.722;9.110;2022-09-13T04:11:03;0.70;;;0.70;;
10677;SDS011;5387;48.722;9.110;2022-09-13T04:13:30;0.70;;;0.70;;
10677;SDS011;5387;48.722;9.110;2022-09-13T04:15:59;0.80;;;0.80;;
10677;SDS011;5387;48.722;9.110;2022-09-13T04:18:26;0.80;;;0.80;;
10677;SDS011;5387;48.722;9.110;2022-09-13T04:20:53;0.60;;;0.60;;
10677;SDS011;5387;48.722;9.110;2022-09-13T04:23:20;0.65;;;0.65;;
10677;SDS011;5387;48.722;9.110;2022-09-13T04:25:48;0.90;;;0.90;;
10677;SDS011;5387;48.722;9.110;2022-09-13T04:28:15;0.57;;;0.57;;
10677;SDS011;5387;48.722;9.110;2022-09-13T04:30:42;0.80;;;0.80;;
10677;SDS011;5387;48.722;9.110;2022-09-13T04:33:09;1.50;;;1.20;;
10677;SDS011;5387;48.722;9.110;2022-09-13T04:35:36;0.60;;;0.60;;
10677;SDS011;5387;48.722;9.110;2022-09-13T04:38:04;0.63;;;0.63;;
10677;SDS011;5387;48.722;9.110;2022-09-13T04:40:31;0.70;;;0.70;;
10677;SDS011;5387;48.722;9.110;2022-09-13T04:43:00;0.63;;;0.63;;
10677;SDS011;5387;48.722;9.110;2022-09-13T04:45:27;0.60;;;0.60;;
10677;SDS011;5387;48.722;9.110;2022-09-13T04:47:55;0.70;;;0.70;;
10677;SDS011;5387;48.722;9.110;2022-09-13T04:50:22;0.75;;;0.75;;
10677;SDS011;5387;48.722;9.110;2022-09-13T04:52:50;0.60;;;0.60;;
10677;SDS011;5387;48.722;9.110;2022-09-13T04:55:19;0.60;;;0.60;;
10677;SDS011;5387;48.722;9.110;2022-09-13T04:57:46;0.75;;;0.75;;
10677;SDS011;5387;48.722;9.110;2022-09-13T05:00:14;0.65;;;0.65;;
10677;SDS011;5387;48.722;9.110;2022-09-13T05:02:41;0.70;;;0.70;;
10677;SDS011;5387;48.722;9.110;2022-09-13T05:05:08;0.52;;;0.52;;
10677;SDS011;5387;48.722;9.110;2022-09-13T05:07:35;0.75;;;0.75;;
10677;SDS011;5387;48.722;9.110;2022-09-13T05:10:02;0.53;;;0.53;;
10677;SDS011;5387;48.722;9.110;2022-09-13T05:12:29;0.60;;;0.60;;
10677;SDS011;5387;48.722;9.110;2022-09-13T05:14:56;0.73;;;0.73;;
10677;SDS011;5387;48.722;9.110;2022-09-13T05:17:24;0.70;;;0.70;;
10677;SDS011;5387;48.722;9.110;2022-09-13T05:19:51;0.60;;;0.60;;
10677;SDS011;5387;48.722;9.110;2022-09-13T05:22:18;0.90;;;0.90;;
10677;SDS011;5387;48.722;9.110;2022-09-13T05:24:44;0.88;;;0.88;;
10677;SDS011;5387;48.722;9.110;2022-09-13T05:27:11;0.65;;;0.65;;
10677;SDS011;5387;48.722;9.110;2022-09-13T05:29:38;0.65;;;0.65;;
10677;SDS011;5387;48.722;9.110;2022-09-13T05:32:05;0.63;;;0.63;;
10677;SDS011;5387;48.722;9.110;2022-09-13T05:34:33;0.70;;;0.70;;
10677;SDS011;5387;48.722;9.110;2022-09-13T05:37:00;0.80;;;0.80;;
10677;SDS011;5387;48.722;9.110;2022-09-13T05:39:27;0.60;;;0.60;;
10677;SDS011;5387;48.722;9.110;2022-09-13T05:41:54;0.60;;;0.60;;
10677;SDS011;5387;48.722;9.110;2022-09-13T05:44:21;0.70;;;0.70;;
10677;SDS011;5387;48.722;9.110;2022-09-13T05:46:48;0.77;;;0.77;;
10677;SDS011;5387;48.722;9.110;2022-09-13T05:49:14;0.60;;;0.60;;
10677;SDS011;5387;48.722;9.110;2022-09-13T05:51:43;0.50;;;0.50;;
10677;SDS011;5387;48.722;9.110;2022-09-13T05:54:10;0.80;;;0.80;;
10677;SDS011;5387;48.722;9.110;2022-09-13T05:56:37;0.57;;;0.57;;
10677;SDS011;5387;48.722;9.110;2022-09-13T05:59:04;0.88;;;0.88;;
10677;SDS011;5387;48.722;9.110;2022-09-13T06:01:32;0.73;;;0.73;;
10677;SDS011;5387;48.722;9.110;2022-09-13T06:03:59;0.73;;;0.73;;
10677;SDS011;5387;48.722;9.110;2022-09-13T06:06:26;0.75;;;0.75;;
10677;SDS011;5387;48.722;9.110;2022-09-13T06:08:55;0.80;;;0.80;;
10677;SDS011;5387;48.722;9.110;2022-09-13T06:11:23;0.60;;;0.60;;
10677;SDS011;5387;48.722;9.110;2022-09-13T06:13:50;0.60;;;0.60;;
10677;SDS011;5387;48.722;9.110;2022-09-13T06:16:17;0.60;;;0.60;;
10677;SDS011;5387;48.722;9.110;2022-09-13T06:18:44;0.60;;;0.60;;
10677;SDS011;5387;48.722;9.110;2022-09-13T06:21:12;0.85;;;0.85;;
10677;SDS011;5387;48.722;9.110;2022-09-13T06:23:41;0.70;;;0.70;;
10677;SDS011;5387;48.722;9.110;2022-09-13T06:26:11;0.82;;;0.82;;
10677;SDS011;5387;48.722;9.110;2022-09-13T06:28:39;0.68;;;0.68;;
10677;SDS011;5387;48.722;9.110;2022-09-13T06:31:07;0.60;;;0.60;;
10677;SDS011;5387;48.722;9.110;2022-09-13T06:33:35;0.75;;;0.75;;
10677;SDS011;5387;48.722;9.110;2022-09-13T06:36:04;0.90;;;0.90;;
10677;SDS011;5387;48.722;9.110;2022-09-13T06:38:31;0.80;;;0.80;;
10677;SDS011;5387;48.722;9.110;2022-09-13T06:40:59;0.60;;;0.60;;
10677;SDS011;5387;48.722;9.110;2022-09-13T06:43:28;0.82;;;0.82;;
10677;SDS011;5387;48.722;9.110;2022-09-13T06:45:58;0.73;;;0.73;;
10677;SDS011;5387;48.722;9.110;2022-09-13T06:48:25;0.50;;;0.50;;
10677;SDS011;5387;48.722;9.110;2022-09-13T06:50:56;0.70;;;0.70;;
10677;SDS011;5387;48.722;9.110;2022-09-13T06:53:24;0.65;;;0.65;;
10677;SDS011;5387;48.722;9.110;2022-09-13T06:55:58;0.93;;;0.85;;
10677;SDS011;5387;48.722;9.110;2022-09-13T06:58:27;0.70;;;0.70;;
10677;SDS011;5387;48.722;9.110;2022-09-13T07:01:03;0.60;;;0.60;;
10677;SDS011;5387;48.722;9.110;2022-09-13T07:03:33;0.70;;;0.70;;
10677;SDS011;5387;48.722;9.110;2022-09-13T07:06:04;0.90;;;0.90;;
10677;SDS011;5387;48.722;9.110;2022-09-13T07:08:32;0.60;;;0.60;;
10677;SDS011;5387;48.722;9.110;2022-09-13T07:10:59;0.60;;;0.60;;
10677;SDS011;5387;48.722;9.110;2022-09-13T07:13:27;0.60;;;0.60;;
10677;SDS011;5387;48.722;9.110;2022-09-13T07:15:54;0.50;;;0.50;;
10677;SDS011;5387;48.722;9.110;2022-09-13T07:18:21;0.60;;;0.60;;
10677;SDS011;5387;48.722;9.110;2022-09-13T07:20:48;0.68;;;0.68;;
10677;SDS011;5387;48.722;9.110;2022-09-13T07:23:15;0.65;;;0.65;;
10677;SDS011;5387;48.722;9.110;2022-09-13T07:25:41;0.70;;;0.70;;
10677;SDS011;5387;48.722;9.110;2022-09-13T07:28:08;0.85;;;0.85;;
10677;SDS011;5387;48.722;9.110;2022-09-13T07:30:36;1.10;;;1.05;;
10677;SDS011;5387;48.722;9.110;2022-09-13T07:33:03;1.85;;;0.75;;
10677;SDS011;5387;48.722;9.110;2022-09-13T07:35:30;0.60;;;0.60;;
10677;SDS011;5387;48.722;9.110;2022-09-13T07:37:57;0.60;;;0.60;;
10677;SDS011;5387;48.722;9.110;2022-09-13T07:40:23;0.93;;;0.93;;
10677;SDS011;5387;48.722;9.110;2022-09-13T07:42:50;0.70;;;0.70;;
10677;SDS011;5387;48.722;9.110;2022-09-13T07:45:17;1.20;;;1.20;;
10677;SDS011;5387;48.722;9.110;2022-09-13T07:47:46;3.20;;;1.25;;
10677;SDS011;5387;48.722;9.110;2022-09-13T07:50:17;0.70;;;0.70;;
10677;SDS011;5387;48.722;9.110;2022-09-13T07:52:44;0.65;;;0.65;;
10677;SDS011;5387;48.722;9.110;2022-09-13T07:55:11;0.60;;;0.60;;
10677;SDS011;5387;48.722;9.110;2022-09-13T07:57:38;1.33;;;1.27;;
10677;SDS011;5387;48.722;9.110;2022-09-13T08:00:05;0.70;;;0.70;;
10677;SDS011;5387;48.722;9.110;2022-09-13T08:02:33;0.60;;;0.60;;
10677;SDS011;5387;48.722;9.110;2022-09-13T08:05:02;1.08;;;1.08;;
10677;SDS011;5387;48.722;9.110;2022-09-13T08:07:30;0.60;;;0.60;;
10677;SDS011;5387;48.722;9.110;2022-09-13T08:09:57;0.60;;;0.60;;
10677;SDS011;5387;48.722;9.110;2022-09-13T08:12:23;1.00;;;1.00;;
10677;SDS011;5387;48.722;9.110;2022-09-13T08:14:50;0.80;;;0.80;;
10677;SDS011;5387;48.722;9.110;2022-09-13T08:17:17;0.77;;;0.77;;
10677;SDS011;5387;48.722;9.110;2022-09-13T08:19:44;0.60;;;0.60;;
10677;SDS011;5387;48.722;9.110;2022-09-13T08:22:12;3.95;;;0.95;;
10677;SDS011;5387;48.722;9.110;2022-09-13T08:24:39;0.50;;;0.50;;
10677;SDS011;5387;48.722;9.110;2022-09-13T08:27:05;0.80;;;0.80;;
10677;SDS011;5387;48.722;9.110;2022-09-13T08:29:32;0.93;;;0.93;;
10677;SDS011;5387;48.722;9.110;2022-09-13T08:31:59;0.88;;;0.88;;
10677;SDS011;5387;48.722;9.110;2022-09-13T08:34:26;0.88;;;0.88;;
10677;SDS011;5387;48.722;9.110;2022-09-13T08:36:53;0.80;;;0.80;;
10677;SDS011;5387;48.722;9.110;2022-09-13T08:39:21;0.70;;;0.70;;
10677;SDS011;5387;48.722;9.110;2022-09-13T08:44:42;0.73;;;0.73;;
10677;SDS011;5387;48.722;9.110;2022-09-13T08:47:29;0.80;;;0.80;;
10677;SDS011;5387;48.722;9.110;2022-09-13T08:50:03;0.80;;;0.80;;
10677;SDS011;5387;48.722;9.110;2022-09-13T08:52:38;0.60;;;0.60;;
10677;SDS011;5387;48.722;9.110;2022-09-13T08:55:18;0.70;;;0.70;;
10677;SDS011;5387;48.722;9.110;2022-09-13T08:57:51;1.55;;;1.02;;
10677;SDS011;5387;48.722;9.110;2022-09-13T09:00:22;0.70;;;0.70;;
10677;SDS011;5387;48.722;9.110;2022-09-13T09:02:58;0.63;;;0.63;;
10677;SDS011;5387;48.722;9.110;2022-09-13T09:05:38;0.70;;;0.70;;
10677;SDS011;5387;48.722;9.110;2022-09-13T09:08:12;0.70;;;0.70;;
10677;SDS011;5387;48.722;9.110;2022-09-13T09:10:47;0.73;;;0.73;;
10677;SDS011;5387;48.722;9.110;2022-09-13T09:13:18;0.70;;;0.70;;
10677;SDS011;5387;48.722;9.110;2022-09-13T09:15:53;0.80;;;0.80;;
10677;SDS011;5387;48.722;9.110;2022-09-13T09:18:24;0.93;;;0.93;;
10677;SDS011;5387;48.722;9.110;2022-09-13T09:20:55;0.60;;;0.60;;
10677;SDS011;5387;48.722;9.110;2022-09-13T09:23:24;1.05;;;0.95;;
10677;SDS011;5387;48.722;9.110;2022-09-13T09:25:56;0.60;;;0.60;;
10677;SDS011;5387;48.722;9.110;2022-09-13T09:28:30;0.60;;;0.60;;
10677;SDS011;5387;48.722;9.110;2022-09-13T09:30:58;0.68;;;0.68;;
10677;SDS011;5387;48.722;9.110;2022-09-13T09:33:31;0.60;;;0.60;;
10677;SDS011;5387;48.722;9.110;2022-09-13T09:36:20;0.75;;;0.75;;
10677;SDS011;5387;48.722;9.110;2022-09-13T09:38:52;2.30;;;0.82;;
10677;SDS011;5387;48.722;9.110;2022-09-13T09:41:24;0.70;;;0.70;;
10677;SDS011;5387;48.722;9.110;2022-09-13T09:43:54;0.60;;;0.60;;
10677;SDS011;5387;48.722;9.110;2022-09-13T09:46:26;0.77;;;0.77;;
10677;SDS011;5387;48.722;9.110;2022-09-13T09:48:59;1.08;;;0.75;;
10677;SDS011;5387;48.722;9.110;2022-09-13T09:51:52;0.90;;;0.90;;
10677;SDS011;5387;48.722;9.110;2022-09-13T09:54:21;0.75;;;0.75;;
10677;SDS011;5387;48.722;9.110;2022-09-13T09:56:54;0.60;;;0.60;;
10677;SDS011;5387;48.722;9.110;2022-09-13T09:59:25;0.88;;;0.88;;
10677;SDS011;5387;48.722;9.110;2022-09-13T10:01:53;0.60;;;0.60;;
10677;SDS011;5387;48.722;9.110;2022-09-13T10:04:22;0.68;;;0.68;;
10677;SDS011;5387;48.722;9.110;2022-09-13T10:06:50;0.75;;;0.75;;
10677;SDS011;5387;48.722;9.110;2022-09-13T10:09:34;0.82;;;0.82;;
10677;SDS011;5387;48.722;9.110;2022-09-13T10:12:04;1.60;;;0.82;;
10677;SDS011;5387;48.722;9.110;2022-09-13T10:14:36;0.60;;;0.60;;
10677;SDS011;5387;48.722;9.110;2022-09-13T10:17:13;0.70;;;0.70;;
10677;SDS011;5387;48.722;9.110;2022-09-13T10:19:52;0.60;;;0.60;;
10677;SDS011;5387;48.722;9.110;2022-09-13T10:22:21;0.70;;;0.70;;
10677;SDS011;5387;48.722;9.110;2022-09-13T10:24:49;0.93;;;0.93;;
10677;SDS011;5387;48.722;9.110;2022-09-13T10:27:21;0.60;;;0.60;;
10677;SDS011;5387;48.722;9.110;2022-09-13T10:29:55;0.80;;;0.80;;
10677;SDS011;5387;48.722;9.110;2022-09-13T10:32:24;0.60;;;0.60;;
10677;SDS011;5387;48.722;9.110;2022-09-13T10:34:51;0.70;;;0.70;;
10677;SDS011;5387;48.722;9.110;2022-09-13T10:37:20;0.80;;;0.80;;
10677;SDS011;5387;48.722;9.110;2022-09-13T10:39:55;0.80;;;0.80;;
10677;SDS011;5387;48.722;9.110;2022-09-13T10:42:28;0.70;;;0.70;;
10677;SDS011;5387;48.722;9.110;2022-09-13T10:44:56;0.70;;;0.70;;
10677;SDS011;5387;48.722;9.110;2022-09-13T10:47:26;0.70;;;0.70;;
10677;SDS011;5387;48.722;9.110;2022-09-13T10:50:09;0.70;;;0.70;;
10677;SDS011;5387;48.722;9.110;2022-09-13T10:52:41;0.70;;;0.70;;
10677;SDS011;5387;48.722;9.110;2022-09-13T10:55:31;0.80;;;0.80;;
10677;SDS011;5387;48.722;9.110;2022-09-13T11:01:00;0.70;;;0.70;;
10677;SDS011;5387;48.722;9.110;2022-09-13T11:03:57;0.65;;;0.65;;
10677;SDS011;5387;48.722;9.110;2022-09-13T11:06:52;1.45;;;0.70;;
10677;SDS011;5387;48.722;9.110;2022-09-13T11:09:27;0.70;;;0.70;;
10677;SDS011;5387;48.722;9.110;2022-09-13T11:12:01;0.80;;;0.80;;
10677;SDS011;5387;48.722;9.110;2022-09-13T11:14:45;0.60;;;0.60;;
10677;SDS011;5387;48.722;9.110;2022-09-13T11:17:20;0.70;;;0.70;;
10677;SDS011;5387;48.722;9.110;2022-09-13T11:20:02;0.60;;;0.60;;
10677;SDS011;5387;48.722;9.110;2022-09-13T11:22:54;0.75;;;0.75;;
10677;SDS011;5387;48.722;9.110;2022-09-13T11:25:43;0.70;;;0.70;;
10677;SDS011;5387;48.722;9.110;2022-09-13T11:28:34;0.70;;;0.70;;
10677;SDS011;5387;48.722;9.110;2022-09-13T11:31:28;0.70;;;0.70;;
10677;SDS011;5387;48.722;9.110;2022-09-13T11:34:08;0.80;;;0.80;;
10677;SDS011;5387;48.722;9.110;2022-09-13T11:36:52;0.65;;;0.65;;
10677;SDS011;5387;48.722;9.110;2022-09-13T11:39:30;0.70;;;0.70;;
10677;SDS011;5387;48.722;9.110;2022-09-13T11:42:01;0.75;;;0.75;;
10677;SDS011;5387;48.722;9.110;2022-09-13T11:47:43;0.77;;;0.77;;
10677;SDS011;5387;48.722;9.110;2022-09-13T11:50:28;0.85;;;0.85;;
10677;SDS011;5387;48.722;9.110;2022-09-13T11:53:20;0.80;;;0.80;;
10677;SDS011;5387;48.722;9.110;2022-09-13T11:56:15;1.92;;;1.92;;
10677;SDS011;5387;48.722;9.110;2022-09-13T11:58:48;1.90;;;1.90;;
10677;SDS011;5387;48.722;9.110;2022-09-13T12:01:19;1.70;;;1.70;;
10677;SDS011;5387;48.722;9.110;2022-09-13T12:03:53;2.00;;;2.00;;
10677;SDS011;5387;48.722;9.110;2022-09-13T12:06:26;1.52;;;1.52;;
10677;SDS011;5387;48.722;9.110;2022-09-13T12:08:57;1.55;;;1.55;;
10677;SDS011;5387;48.722;9.110;2022-09-13T12:11:28;1.13;;;1.13;;
10677;SDS011;5387;48.722;9.110;2022-09-13T12:13:59;1.35;;;1.25;;
10677;SDS011;5387;48.722;9.110;2022-09-13T12:16:30;1.63;;;1.63;;
10677;SDS011;5387;48.722;9.110;2022-09-13T12:19:01;1.70;;;1.70;;
10677;SDS011;5387;48.722;9.110;2022-09-13T12:21:34;1.50;;;1.50;;
10677;SDS011;5387;48.722;9.110;2022-09-13T12:24:04;1.20;;;1.20;;
10677;SDS011;5387;48.722;9.110;2022-09-13T12:26:37;1.20;;;1.20;;
10677;SDS011;5387;48.722;9.110;2022-09-13T12:29:10;1.48;;;1.48;;
10677;SDS011;5387;48.722;9.110;2022-09-13T12:31:43;1.50;;;1.50;;
10677;SDS011;5387;48.722;9.110;2022-09-13T12:34:17;1.58;;;1.58;;
10677;SDS011;5387;48.722;9.110;2022-09-13T12:36:50;1.40;;;1.40;;
10677;SDS011;5387;48.722;9.110;2022-09-13T12:45:33;1.50;;;1.50;;
10677;SDS011;5387;48.722;9.110;2022-09-13T12:51:09;1.33;;;1.30;;
10677;SDS011;5387;48.722;9.110;2022-09-13T12:56:45;1.10;;;1.10;;
10677;SDS011;5387;48.722;9.110;2022-09-13T12:59:38;1.10;;;1.10;;
10677;SDS011;5387;48.722;9.110;2022-09-13T13:05:04;1.30;;;1.20;;
10677;SDS011;5387;48.722;9.110;2022-09-13T13:07:48;1.02;;;1.02;;
10677;SDS011;5387;48.722;9.110;2022-09-13T13:10:22;1.10;;;1.10;;
10677;SDS011;5387;48.722;9.110;2022-09-13T13:12:51;1.17;;;1.17;;
10677;SDS011;5387;48.722;9.110;2022-09-13T13:18:21;1.08;;;1.08;;
10677;SDS011;5387;48.722;9.110;2022-09-13T13:21:04;1.50;;;1.50;;
10677;SDS011;5387;48.722;9.110;2022-09-13T13:23:48;1.40;;;1.40;;
10677;SDS011;5387;48.722;9.110;2022-09-13T13:26:54;1.65;;;1.65;;
10677;SDS011;5387;48.722;9.110;2022-09-13T13:29:23;1.50;;;1.50;;
10677;SDS011;5387;48.722;9.110;2022-09-13T13:32:09;1.40;;;1.40;;
10677;SDS011;5387;48.722;9.110;2022-09-13T13:34:44;1.40;;;1.40;;
10677;SDS011;5387;48.722;9.110;2022-09-13T13:40:10;1.20;;;1.20;;
10677;SDS011;5387;48.722;9.110;2022-09-13T13:42:45;1.30;;;1.30;;
10677;SDS011;5387;48.722;9.110;2022-09-13T13:48:08;1.30;;;1.30;;
10677;SDS011;5387;48.722;9.110;2022-09-13T13:53:45;1.30;;;1.30;;
10677;SDS011;5387;48.722;9.110;2022-09-13T13:56:25;1.23;;;1.23;;
10677;SDS011;5387;48.722;9.110;2022-09-13T13:58:57;1.10;;;1.10;;
10677;SDS011;5387;48.722;9.110;2022-09-13T14:01:30;1.10;;;1.10;;
10677;SDS011;5387;48.722;9.110;2022-09-13T14:04:10;1.10;;;1.10;;
10677;SDS011;5387;48.722;9.110;2022-09-13T14:07:04;1.20;;;1.20;;
10677;SDS011;5387;48.722;9.110;2022-09-13T14:09:39;1.00;;;1.00;;
10677;SDS011;5387;48.722;9.110;2022-09-13T14:12:19;1.00;;;1.00;;
10677;SDS011;5387;48.722;9.110;2022-09-13T14:15:01;2.28;;;1.30;;
10677;SDS011;5387;48.722;9.110;2022-09-13T14:17:51;1.30;;;1.20;;
10677;SDS011;5387;48.722;9.110;2022-09-13T14:20:36;1.00;;;1.00;;
10677;SDS011;5387;48.722;9.110;2022-09-13T14:23:15;1.10;;;1.10;;
10677;SDS011;5387;48.722;9.110;2022-09-13T14:25:42;1.00;;;1.00;;
10677;SDS011;5387;48.722;9.110;2022-09-13T14:28:12;1.00;;;1.00;;
10677;SDS011;5387;48.722;9.110;2022-09-13T14:30:40;0.90;;;0.90;;
10677;SDS011;5387;48.722;9.110;2022-09-13T14:33:15;0.90;;;0.90;;
10677;SDS011;5387;48.722;9.110;2022-09-13T14:35:55;0.90;;;0.90;;
10677;SDS011;5387;48.722;9.110;2022-09-13T14:38:24;0.98;;;0.98;;
10677;SDS011;5387;48.722;9.110;2022-09-13T14:40:58;1.00;;;1.00;;
10677;SDS011;5387;48.722;9.110;2022-09-13T14:43:27;1.10;;;1.10;;
10677;SDS011;5387;48.722;9.110;2022-09-13T14:45:56;0.90;;;0.90;;
10677;SDS011;5387;48.722;9.110;2022-09-13T14:48:27;1.00;;;1.00;;
10677;SDS011;5387;48.722;9.110;2022-09-13T14:50:59;1.10;;;1.10;;
10677;SDS011;5387;48.722;9.110;2022-09-13T14:53:29;1.00;;;1.00;;
10677;SDS011;5387;48.722;9.110;2022-09-13T14:56:00;1.00;;;1.00;;
10677;SDS011;5387;48.722;9.110;2022-09-13T14:58:33;0.90;;;0.90;;
10677;SDS011;5387;48.722;9.110;2022-09-13T15:01:08;0.90;;;0.90;;
10677;SDS011;5387;48.722;9.110;2022-09-13T15:03:39;0.90;;;0.90;;
10677;SDS011;5387;48.722;9.110;2022-09-13T15:06:17;0.90;;;0.90;;
10677;SDS011;5387;48.722;9.110;2022-09-13T15:08:47;1.10;;;0.98;;
10677;SDS011;5387;48.722;9.110;2022-09-13T15:11:15;0.80;;;0.80;;
10677;SDS011;5387;48.722;9.110;2022-09-13T15:14:00;0.82;;;0.82;;
10677;SDS011;5387;48.722;9.110;2022-09-13T15:16:57;0.95;;;0.95;;
10677;SDS011;5387;48.722;9.110;2022-09-13T15:19:27;0.90;;;0.90;;
10677;SDS011;5387;48.722;9.110;2022-09-13T15:22:02;0.80;;;0.80;;
10677;SDS011;5387;48.722;9.110;2022-09-13T15:24:31;0.90;;;0.90;;
10677;SDS011;5387;48.722;9.110;2022-09-13T15:27:04;0.90;;;0.90;;
10677;SDS011;5387;48.722;9.110;2022-09-13T15:29:34;0.90;;;0.90;;
10677;SDS011;5387;48.722;9.110;2022-09-13T15:32:01;0.90;;;0.90;;
10677;SDS011;5387;48.722;9.110;2022-09-13T15:34:29;0.90;;;0.90;;
10677;SDS011;5387;48.722;9.110;2022-09-13T15:37:07;0.90;;;0.90;;
10677;SDS011;5387;48.722;9.110;2022-09-13T15:39:41;0.93;;;0.93;;
10677;SDS011;5387;48.722;9.110;2022-09-13T15:42:10;0.80;;;0.80;;
10677;SDS011;5387;48.722;9.110;2022-09-13T15:44:38;0.95;;;0.95;;
10677;SDS011;5387;48.722;9.110;2022-09-13T15:47:07;1.00;;;1.00;;
10677;SDS011;5387;48.722;9.110;2022-09-13T15:49:36;1.00;;;1.00;;
10677;SDS011;5387;48.722;9.110;2022-09-13T15:52:05;1.10;;;1.10;;
10677;SDS011;5387;48.722;9.110;2022-09-13T15:54:34;1.33;;;1.30;;
10677;SDS011;5387;48.722;9.110;2022-09-13T15:57:03;1.20;;;1.20;;
10677;SDS011;5387;48.722;9.110;2022-09-13T15:59:32;1.10;;;1.10;;
10677;SDS011;5387;48.722;9.110;2022-09-13T16:02:00;1.10;;;1.10;;
10677;SDS011;5387;48.722;9.110;2022-09-13T16:04:39;1.10;;;1.10;;
10677;SDS011;5387;48.722;9.110;2022-09-13T16:07:06;1.55;;;1.55;;
10677;SDS011;5387;48.722;9.110;2022-09-13T16:09:33;1.50;;;1.50;;
10677;SDS011;5387;48.722;9.110;2022-09-13T16:12:02;1.77;;;1.75;;